createdAt,value
2017-12-12T00:01:51.901Z,40.14
2017-12-12T00:04:20.529Z,40.16
2017-12-12T00:06:49.049Z,40.18
2017-12-12T00:09:17.505Z,40.17
2017-12-12T00:11:46.222Z,40.17
2017-12-12T00:14:14.952Z,40.24
2017-12-12T00:16:43.482Z,40.24
2017-12-12T00:19:11.954Z,40.28
2017-12-12T00:21:40.716Z,40.35
2017-12-12T00:24:09.264Z,40.41
2017-12-12T00:26:37.791Z,40.45
2017-12-12T00:29:06.350Z,40.53
2017-12-12T00:31:34.887Z,40.48
2017-12-12T00:34:03.570Z,40.46
2017-12-12T00:36:32.118Z,40.47
2017-12-12T00:39:00.785Z,40.49
2017-12-12T00:41:29.263Z,40.35
2017-12-12T00:43:57.740Z,40.38
2017-12-12T00:46:26.382Z,40.44
2017-12-12T00:48:55.041Z,40.42
2017-12-12T00:51:23.517Z,40.47
2017-12-12T00:53:51.962Z,40.46
2017-12-12T00:56:20.451Z,40.53
2017-12-12T00:58:49.176Z,40.50
2017-12-12T01:01:17.698Z,40.57
2017-12-12T01:03:46.198Z,40.60
2017-12-12T01:06:14.700Z,40.65
2017-12-12T01:08:43.158Z,40.63
2017-12-12T01:11:11.673Z,40.68
2017-12-12T01:13:40.230Z,40.78
2017-12-12T01:16:08.727Z,40.73
2017-12-12T01:18:37.254Z,40.68
2017-12-12T01:21:05.792Z,40.74
2017-12-12T01:23:34.510Z,40.78
2017-12-12T01:26:03.127Z,40.72
2017-12-12T01:28:31.619Z,40.57
2017-12-12T01:31:00.137Z,40.68
2017-12-12T01:33:28.801Z,40.71
2017-12-12T01:35:57.434Z,40.72
2017-12-12T01:38:26.086Z,40.66
2017-12-12T01:40:55.243Z,40.70
2017-12-12T01:43:24.215Z,40.67
2017-12-12T01:45:53.210Z,40.72
2017-12-12T01:48:21.845Z,40.73
2017-12-12T01:50:50.609Z,40.78
2017-12-12T01:53:19.177Z,40.85
2017-12-12T01:55:47.753Z,40.70
2017-12-12T01:58:16.609Z,40.77
2017-12-12T02:00:45.907Z,40.83
2017-12-12T02:03:14.784Z,40.72
2017-12-12T02:05:43.675Z,40.88
2017-12-12T02:08:12.457Z,40.68
2017-12-12T02:10:41.086Z,40.70
2017-12-12T02:13:09.736Z,40.68
2017-12-12T02:15:38.290Z,40.76
2017-12-12T02:18:06.862Z,40.79
2017-12-12T02:20:35.381Z,40.83
2017-12-12T02:23:04.140Z,40.82
2017-12-12T02:25:32.791Z,40.82
2017-12-12T02:28:01.469Z,40.95
2017-12-12T02:30:30.194Z,40.98
2017-12-12T02:32:58.835Z,41.02
2017-12-12T02:35:27.760Z,41.06
2017-12-12T02:37:56.390Z,40.91
2017-12-12T02:40:25.103Z,40.78
2017-12-12T02:42:53.589Z,40.72
2017-12-12T02:45:22.280Z,40.76
2017-12-12T02:47:51.162Z,40.77
2017-12-12T02:50:19.689Z,40.76
2017-12-12T02:52:48.321Z,40.78
2017-12-12T02:55:16.849Z,40.78
2017-12-12T02:57:45.450Z,40.83
2017-12-12T03:00:14.298Z,40.79
2017-12-12T03:02:42.778Z,40.88
2017-12-12T03:05:11.325Z,40.93
2017-12-12T03:07:46.409Z,40.91
2017-12-12T03:10:14.982Z,40.78
2017-12-12T03:12:43.481Z,40.62
2017-12-12T03:15:12.268Z,40.33
2017-12-12T03:17:40.918Z,40.16
2017-12-12T03:20:09.468Z,40.30
2017-12-12T03:22:38.035Z,40.37
2017-12-12T03:25:06.704Z,40.31
2017-12-12T03:27:35.231Z,40.39
2017-12-12T03:30:03.804Z,40.38
2017-12-12T03:32:32.401Z,40.41
2017-12-12T03:35:00.903Z,40.50
2017-12-12T03:37:29.604Z,40.36
2017-12-12T03:39:58.092Z,40.36
2017-12-12T03:42:26.589Z,40.34
2017-12-12T03:44:55.409Z,40.33
2017-12-12T03:47:23.924Z,40.29
2017-12-12T03:49:52.613Z,40.22
2017-12-12T03:52:21.257Z,40.21
2017-12-12T03:54:49.952Z,40.27
2017-12-12T03:57:18.586Z,40.22
2017-12-12T03:59:47.105Z,40.17
2017-12-12T04:02:15.625Z,40.18
2017-12-12T04:04:44.315Z,40.18
2017-12-12T04:07:13.050Z,40.35
2017-12-12T04:09:41.636Z,40.34
2017-12-12T04:12:10.180Z,40.25
2017-12-12T04:14:38.682Z,40.29
2017-12-12T04:17:07.540Z,40.23
2017-12-12T04:19:36.182Z,40.31
2017-12-12T04:22:04.906Z,40.38
2017-12-12T04:24:33.552Z,40.36
2017-12-12T04:27:02.061Z,40.46
2017-12-12T04:29:30.723Z,40.40
2017-12-12T04:31:59.243Z,40.35
2017-12-12T04:34:27.747Z,40.38
2017-12-12T04:36:56.319Z,40.48
2017-12-12T04:39:25.066Z,40.34
2017-12-12T04:41:53.590Z,40.35
2017-12-12T04:44:22.054Z,40.39
2017-12-12T04:46:50.574Z,40.38
2017-12-12T04:49:19.265Z,40.49
2017-12-12T04:51:47.793Z,40.50
2017-12-12T04:54:16.355Z,40.51
2017-12-12T04:56:45.075Z,40.45
2017-12-12T04:59:13.734Z,40.45
2017-12-12T05:04:37.598Z,40.58
2017-12-12T05:07:05.913Z,40.54
2017-12-12T05:09:34.331Z,40.62
2017-12-12T05:12:02.826Z,40.64
2017-12-12T05:14:31.155Z,40.57
2017-12-12T05:16:59.493Z,40.71
2017-12-12T05:19:27.850Z,40.76
2017-12-12T05:21:56.429Z,40.89
2017-12-12T05:24:24.749Z,40.80
2017-12-12T05:26:53.166Z,40.85
2017-12-12T05:29:21.653Z,40.77
2017-12-12T05:31:50.007Z,40.85
2017-12-12T05:34:18.309Z,40.84
2017-12-12T05:36:46.597Z,40.87
2017-12-12T05:39:14.939Z,40.92
2017-12-12T05:41:43.230Z,41.06
2017-12-12T05:44:16.190Z,41.10
2017-12-12T05:46:44.541Z,41.21
2017-12-12T05:49:13.420Z,41.34
2017-12-12T05:51:41.742Z,41.24
2017-12-12T05:54:10.014Z,41.27
2017-12-12T05:56:38.305Z,41.21
2017-12-12T05:59:06.653Z,41.21
2017-12-12T06:01:34.909Z,41.86
2017-12-12T06:04:03.953Z,42.68
2017-12-12T06:06:32.357Z,43.27
2017-12-12T06:09:00.621Z,43.11
2017-12-12T06:11:28.899Z,43.21
2017-12-12T06:13:57.169Z,43.14
2017-12-12T06:16:25.481Z,43.05
2017-12-12T06:18:54.298Z,43.06
2017-12-12T06:21:22.633Z,43.18
2017-12-12T06:23:50.962Z,43.58
2017-12-12T06:26:19.249Z,44.21
2017-12-12T06:28:47.532Z,44.39
2017-12-12T06:31:15.809Z,44.64
2017-12-12T06:33:44.110Z,44.73
2017-12-12T06:36:12.751Z,44.70
2017-12-12T06:38:47.556Z,44.78
2017-12-12T06:41:15.861Z,44.68
2017-12-12T06:43:44.125Z,44.57
2017-12-12T06:46:14.936Z,44.52
2017-12-12T06:48:44.122Z,44.30
2017-12-12T06:51:12.445Z,44.01
2017-12-12T06:53:41.061Z,44.05
2017-12-12T06:56:11.384Z,44.30
2017-12-12T06:58:40.190Z,44.56
2017-12-12T07:01:11.413Z,44.38
2017-12-12T07:03:39.857Z,44.63
2017-12-12T07:06:08.137Z,44.38
2017-12-12T07:08:36.909Z,44.19
2017-12-12T07:11:05.198Z,44.16
2017-12-12T07:13:33.437Z,44.08
2017-12-12T07:16:01.713Z,44.02
2017-12-12T07:18:29.953Z,43.95
2017-12-12T07:20:58.218Z,43.82
2017-12-12T07:23:26.537Z,43.98
2017-12-12T07:25:54.888Z,44.00
2017-12-12T07:28:23.229Z,44.08
2017-12-12T07:30:51.536Z,43.93
2017-12-12T07:33:19.803Z,43.83
2017-12-12T07:35:48.069Z,43.68
2017-12-12T07:38:16.369Z,43.52
2017-12-12T07:40:44.729Z,43.48
2017-12-12T07:43:13.109Z,43.43
2017-12-12T07:45:41.548Z,43.43
2017-12-12T07:48:09.995Z,43.34
2017-12-12T07:50:38.264Z,43.42
2017-12-12T07:53:06.567Z,43.45
2017-12-12T07:55:34.922Z,43.47
2017-12-12T07:58:03.429Z,43.38
2017-12-12T08:00:31.789Z,43.31
2017-12-12T08:03:00.333Z,43.23
2017-12-12T08:05:28.645Z,43.18
2017-12-12T08:07:57.056Z,43.14
2017-12-12T08:10:25.785Z,43.22
2017-12-12T08:12:54.017Z,43.17
2017-12-12T08:15:23.257Z,43.17
2017-12-12T08:17:51.611Z,43.26
2017-12-12T08:20:19.868Z,43.12
2017-12-12T08:22:48.200Z,43.17
2017-12-12T08:25:16.489Z,43.12
2017-12-12T08:27:44.724Z,43.14
2017-12-12T08:30:13.231Z,42.98
2017-12-12T08:32:41.504Z,42.91
2017-12-12T08:35:09.814Z,42.87
2017-12-12T08:37:38.094Z,42.82
2017-12-12T08:40:06.545Z,42.89
2017-12-12T08:42:34.804Z,42.86
2017-12-12T08:45:03.040Z,42.80
2017-12-12T08:47:31.384Z,42.79
2017-12-12T08:49:59.617Z,42.71
2017-12-12T08:52:28.135Z,42.82
2017-12-12T08:54:56.373Z,42.77
2017-12-12T08:57:24.678Z,42.94
2017-12-12T08:59:52.942Z,42.93
2017-12-12T09:02:21.238Z,42.93
2017-12-12T09:04:49.477Z,42.80
2017-12-12T09:07:17.793Z,42.78
2017-12-12T09:09:46.035Z,42.73
2017-12-12T09:12:14.556Z,42.72
2017-12-12T09:14:42.802Z,42.79
2017-12-12T09:17:11.126Z,42.54
2017-12-12T09:19:39.391Z,42.55
2017-12-12T09:22:07.704Z,42.52
2017-12-12T09:24:35.985Z,42.61
2017-12-12T09:27:04.302Z,42.98
2017-12-12T09:29:32.586Z,42.87
2017-12-12T09:32:00.901Z,42.81
2017-12-12T09:34:29.154Z,42.75
2017-12-12T09:36:57.449Z,42.75
2017-12-12T09:39:25.716Z,42.64
2017-12-12T09:41:54.005Z,42.71
2017-12-12T09:44:22.339Z,42.66
2017-12-12T09:46:50.681Z,42.71
2017-12-12T09:49:19.069Z,42.70
2017-12-12T09:51:47.397Z,42.80
2017-12-12T09:54:15.621Z,42.78
2017-12-12T09:56:43.917Z,42.86
2017-12-12T09:59:12.153Z,42.91
2017-12-12T10:01:40.467Z,43.03
2017-12-12T10:04:08.745Z,43.07
2017-12-12T10:06:37.051Z,43.09
2017-12-12T10:09:05.463Z,43.26
2017-12-12T10:11:33.781Z,43.33
2017-12-12T10:14:02.052Z,43.19
2017-12-12T10:16:30.413Z,42.70
2017-12-12T10:18:58.657Z,42.63
2017-12-12T10:21:26.997Z,42.50
2017-12-12T10:23:55.297Z,42.42
2017-12-12T10:26:23.618Z,42.29
2017-12-12T10:28:51.907Z,42.25
2017-12-12T10:31:20.222Z,42.21
2017-12-12T10:33:48.517Z,42.25
2017-12-12T10:36:16.818Z,42.15
2017-12-12T10:38:45.084Z,42.12
2017-12-12T10:41:13.516Z,42.03
2017-12-12T10:43:41.819Z,41.94
2017-12-12T10:46:10.181Z,41.64
2017-12-12T10:48:38.571Z,41.55
2017-12-12T10:51:06.876Z,41.54
2017-12-12T10:53:35.220Z,41.52
2017-12-12T10:56:03.541Z,41.51
2017-12-12T10:58:31.804Z,41.44
2017-12-12T11:01:00.122Z,41.43
2017-12-12T11:03:28.365Z,41.38
2017-12-12T11:05:56.689Z,41.28
2017-12-12T11:08:24.918Z,41.17
2017-12-12T11:10:53.238Z,41.23
2017-12-12T11:13:21.478Z,41.28
2017-12-12T11:15:49.802Z,41.33
2017-12-12T11:18:18.057Z,41.17
2017-12-12T11:20:46.353Z,41.22
2017-12-12T11:23:14.610Z,41.32
2017-12-12T11:25:42.933Z,41.46
2017-12-12T11:28:11.518Z,41.65
2017-12-12T11:30:39.837Z,41.73
2017-12-12T11:33:08.309Z,41.81
2017-12-12T11:35:36.573Z,41.95
2017-12-12T11:38:04.843Z,42.04
2017-12-12T11:40:33.118Z,42.02
2017-12-12T11:43:01.381Z,42.15
2017-12-12T11:45:29.657Z,42.21
2017-12-12T11:47:57.893Z,42.24
2017-12-12T11:50:26.294Z,42.36
2017-12-12T11:52:54.548Z,42.37
2017-12-12T11:55:22.861Z,42.34
2017-12-12T11:57:51.280Z,42.52
2017-12-12T12:00:19.565Z,42.52
2017-12-12T12:02:48.141Z,42.57
2017-12-12T12:05:16.598Z,42.44
2017-12-12T12:07:44.845Z,42.43
2017-12-12T12:10:13.121Z,42.37
2017-12-12T12:12:41.548Z,42.35
2017-12-12T12:15:09.920Z,42.33
2017-12-12T12:17:38.214Z,42.24
2017-12-12T12:20:06.526Z,42.21
2017-12-12T12:22:34.835Z,42.21
2017-12-12T12:25:03.154Z,42.12
2017-12-12T12:27:31.475Z,41.92
2017-12-12T12:29:59.873Z,41.83
2017-12-12T12:32:28.408Z,41.57
2017-12-12T12:34:56.658Z,41.55
2017-12-12T12:37:24.981Z,41.53
2017-12-12T12:39:53.226Z,41.42
2017-12-12T12:42:21.564Z,41.37
2017-12-12T12:44:49.853Z,41.35
2017-12-12T12:47:18.145Z,41.20
2017-12-12T12:49:46.428Z,41.03
2017-12-12T12:52:15.808Z,41.06
2017-12-12T12:54:44.089Z,40.81
2017-12-12T12:57:12.426Z,40.66
2017-12-12T12:59:40.720Z,40.82
2017-12-12T13:02:09.109Z,40.84
2017-12-12T13:04:37.364Z,40.76
2017-12-12T13:07:05.680Z,40.79
2017-12-12T13:09:33.934Z,40.83
2017-12-12T13:12:02.453Z,40.86
2017-12-12T13:14:30.721Z,40.73
2017-12-12T13:16:59.185Z,40.81
2017-12-12T13:19:27.441Z,40.75
2017-12-12T13:21:55.857Z,40.64
2017-12-12T13:24:24.128Z,40.57
2017-12-12T13:26:52.414Z,40.42
2017-12-12T13:29:20.763Z,40.48
2017-12-12T13:31:49.261Z,40.49
2017-12-12T13:34:17.698Z,40.28
2017-12-12T13:36:45.997Z,39.80
2017-12-12T13:39:14.233Z,38.29
2017-12-12T13:41:42.517Z,38.71
2017-12-12T13:44:10.814Z,39.39
2017-12-12T13:46:39.092Z,39.39
2017-12-12T13:49:07.378Z,39.48
2017-12-12T13:51:35.677Z,39.52
2017-12-12T13:54:03.949Z,39.20
2017-12-12T13:56:32.254Z,39.43
2017-12-12T13:59:00.548Z,40.43
2017-12-12T14:01:28.831Z,40.86
2017-12-12T14:03:57.109Z,40.72
2017-12-12T14:06:25.381Z,40.97
2017-12-12T14:08:53.780Z,41.07
2017-12-12T14:11:22.061Z,41.32
2017-12-12T14:13:50.317Z,40.66
2017-12-12T14:16:18.610Z,41.02
2017-12-12T14:18:46.988Z,41.40
2017-12-12T14:21:15.284Z,41.21
2017-12-12T14:23:43.539Z,41.21
2017-12-12T14:26:11.852Z,40.77
2017-12-12T14:28:40.112Z,40.86
2017-12-12T14:31:08.403Z,40.52
2017-12-12T14:33:36.738Z,40.25
2017-12-12T14:36:05.012Z,40.70
2017-12-12T14:38:33.317Z,40.37
2017-12-12T14:41:01.613Z,39.91
2017-12-12T14:43:29.934Z,40.13
2017-12-12T14:45:58.231Z,39.96
2017-12-12T14:48:26.512Z,39.95
2017-12-12T14:50:54.781Z,39.99
2017-12-12T14:53:23.153Z,39.88
2017-12-12T14:55:51.445Z,40.00
2017-12-12T14:58:19.721Z,39.81
2017-12-12T15:00:47.981Z,39.83
2017-12-12T15:03:16.258Z,40.08
2017-12-12T15:05:44.516Z,39.93
2017-12-12T15:08:12.804Z,39.90
2017-12-12T15:10:41.149Z,39.94
2017-12-12T15:13:09.409Z,39.71
2017-12-12T15:15:37.680Z,39.58
2017-12-12T15:18:06.003Z,39.55
2017-12-12T15:20:34.269Z,39.59
2017-12-12T15:23:02.676Z,39.63
2017-12-12T15:25:30.956Z,39.46
2017-12-12T15:27:59.234Z,39.70
2017-12-12T15:30:27.525Z,39.76
2017-12-12T15:32:55.793Z,39.78
2017-12-12T15:35:24.069Z,39.69
2017-12-12T15:37:52.329Z,39.87
2017-12-12T15:40:20.847Z,39.88
2017-12-12T15:42:49.316Z,39.78
2017-12-12T15:45:17.598Z,39.79
2017-12-12T15:47:45.859Z,39.79
2017-12-12T15:50:14.149Z,39.88
2017-12-12T15:52:42.424Z,39.88
2017-12-12T15:55:10.713Z,40.09
2017-12-12T15:57:39.055Z,40.22
2017-12-12T16:00:07.333Z,40.21
2017-12-12T16:02:35.617Z,40.39
2017-12-12T16:05:03.904Z,40.32
2017-12-12T16:07:32.192Z,40.50
2017-12-12T16:10:00.462Z,40.56
2017-12-12T16:12:28.807Z,40.64
2017-12-12T16:14:57.076Z,40.74
2017-12-12T16:17:25.397Z,40.78
2017-12-12T16:19:54.740Z,40.81
2017-12-12T16:22:23.589Z,40.68
2017-12-12T16:24:51.861Z,40.51
2017-12-12T16:27:20.574Z,40.49
2017-12-12T16:29:49.386Z,40.56
2017-12-12T16:32:17.729Z,40.74
2017-12-12T16:34:45.969Z,40.62
2017-12-12T16:37:14.276Z,40.38
2017-12-12T16:39:42.522Z,40.30
2017-12-12T16:42:10.802Z,40.06
2017-12-12T16:44:39.086Z,40.00
2017-12-12T16:47:07.369Z,40.14
2017-12-12T16:49:35.713Z,40.30
2017-12-12T16:52:03.989Z,40.42
2017-12-12T16:54:32.258Z,40.42
2017-12-12T16:57:00.549Z,40.30
2017-12-12T16:59:28.796Z,40.52
2017-12-12T17:01:57.069Z,40.47
2017-12-12T17:04:25.328Z,40.64
2017-12-12T17:06:53.644Z,40.64
2017-12-12T17:09:22.162Z,40.56
2017-12-12T17:11:50.453Z,40.61
2017-12-12T17:14:18.720Z,40.57
2017-12-12T17:16:46.997Z,40.63
2017-12-12T17:19:15.282Z,40.67
2017-12-12T17:21:43.573Z,40.61
2017-12-12T17:24:11.900Z,40.64
2017-12-12T17:26:40.180Z,40.68
2017-12-12T17:29:08.476Z,40.80
2017-12-12T17:31:36.756Z,40.68
2017-12-12T17:34:05.032Z,40.78
2017-12-12T17:36:33.309Z,40.74
2017-12-12T17:39:01.664Z,40.82
2017-12-12T17:41:29.978Z,40.67
2017-12-12T17:43:59.278Z,40.74
2017-12-12T17:46:27.583Z,40.86
2017-12-12T17:48:55.850Z,41.03
2017-12-12T17:51:24.301Z,41.08
2017-12-12T17:53:53.104Z,41.18
2017-12-12T17:56:21.453Z,41.03
2017-12-12T17:58:49.708Z,41.06
2017-12-12T18:01:18.020Z,40.92
2017-12-12T18:03:46.416Z,41.00
2017-12-12T18:06:16.273Z,41.18
2017-12-12T18:08:44.860Z,41.00
2017-12-12T18:11:13.157Z,41.01
2017-12-12T18:13:41.608Z,40.97
2017-12-12T18:16:09.926Z,40.90
2017-12-12T18:18:38.173Z,40.98
2017-12-12T18:21:06.493Z,40.98
2017-12-12T18:23:34.793Z,40.89
2017-12-12T18:26:04.009Z,41.03
2017-12-12T18:28:34.166Z,40.98
2017-12-12T18:31:04.881Z,40.92
2017-12-12T18:33:35.649Z,40.88
2017-12-12T18:36:06.839Z,40.85
2017-12-12T18:38:37.321Z,40.94
2017-12-12T18:41:05.629Z,40.99
2017-12-12T18:43:34.081Z,41.44
2017-12-12T18:46:02.389Z,42.00
2017-12-12T18:48:30.777Z,41.83
2017-12-12T18:50:59.289Z,41.83
2017-12-12T18:53:27.542Z,41.55
2017-12-12T18:55:55.807Z,41.49
2017-12-12T18:58:24.084Z,41.54
2017-12-12T19:00:52.740Z,41.41
2017-12-12T19:03:21.040Z,41.22
2017-12-12T19:05:49.345Z,41.00
2017-12-12T19:08:17.601Z,40.86
2017-12-12T19:10:45.922Z,40.63
2017-12-12T19:13:14.225Z,40.53
2017-12-12T19:15:42.484Z,40.29
2017-12-12T19:18:10.852Z,40.10
2017-12-12T19:20:39.125Z,39.82
2017-12-12T19:23:07.681Z,39.89
2017-12-12T19:25:37.165Z,39.90
2017-12-12T19:28:06.849Z,39.78
2017-12-12T19:30:35.941Z,39.81
2017-12-12T19:33:04.222Z,39.89
2017-12-12T19:35:32.489Z,39.92
2017-12-12T19:38:00.882Z,39.86
2017-12-12T19:40:29.320Z,39.97
2017-12-12T19:42:57.569Z,39.95
2017-12-12T19:45:25.841Z,39.83
2017-12-12T19:47:54.135Z,39.85
2017-12-12T19:50:22.400Z,39.68
2017-12-12T19:52:50.677Z,39.58
2017-12-12T19:55:18.998Z,39.66
2017-12-12T19:57:47.265Z,40.28
2017-12-12T20:00:15.573Z,40.28
2017-12-12T20:02:43.898Z,39.84
2017-12-12T20:05:12.189Z,39.64
2017-12-12T20:07:40.437Z,39.65
2017-12-12T20:10:09.117Z,39.35
2017-12-12T20:12:37.588Z,39.20
2017-12-12T20:15:05.869Z,39.07
2017-12-12T20:17:34.258Z,39.07
2017-12-12T20:20:03.728Z,39.76
2017-12-12T20:22:33.029Z,39.75
2017-12-12T20:25:01.490Z,40.06
2017-12-12T20:27:29.808Z,40.25
2017-12-12T20:29:58.041Z,40.23
2017-12-12T20:32:26.333Z,40.42
2017-12-12T20:34:54.628Z,40.62
2017-12-12T20:37:22.961Z,40.61
2017-12-12T20:39:51.209Z,40.76
2017-12-12T20:42:19.500Z,40.88
2017-12-12T20:44:47.737Z,41.07
2017-12-12T20:47:16.033Z,41.03
2017-12-12T20:49:44.296Z,38.65
2017-12-12T20:52:12.813Z,38.73
2017-12-12T20:54:42.114Z,38.68
2017-12-12T20:57:11.741Z,38.54
2017-12-12T20:59:42.646Z,38.48
2017-12-12T21:02:14.855Z,38.49
2017-12-12T21:04:46.618Z,38.62
2017-12-12T21:07:20.373Z,38.42
2017-12-12T21:09:48.689Z,37.72
2017-12-12T21:12:16.982Z,37.76
2017-12-12T21:14:45.319Z,37.41
2017-12-12T21:17:20.537Z,38.05
2017-12-12T21:19:49.133Z,38.24
2017-12-12T21:22:17.442Z,38.32
2017-12-12T21:24:45.896Z,38.47
2017-12-12T21:27:14.198Z,38.59
2017-12-12T21:29:42.480Z,38.58
2017-12-12T21:32:10.849Z,38.87
2017-12-12T21:34:39.169Z,38.77
2017-12-12T21:37:07.429Z,38.96
2017-12-12T21:39:36.377Z,39.07
2017-12-12T21:42:04.808Z,39.21
2017-12-12T21:44:33.196Z,39.09
2017-12-12T21:47:01.453Z,39.34
2017-12-12T21:49:29.982Z,39.52
2017-12-12T21:51:58.302Z,39.57
2017-12-12T21:54:26.788Z,39.44
2017-12-12T21:56:55.841Z,39.31
2017-12-12T21:59:25.025Z,38.95
2017-12-12T22:01:54.538Z,38.97
2017-12-12T22:05:10.268Z,38.87
2017-12-12T22:07:38.946Z,39.00
2017-12-12T22:10:07.300Z,39.36
2017-12-12T22:12:35.695Z,39.33
2017-12-12T22:15:04.347Z,39.54
2017-12-12T22:17:32.725Z,39.49
2017-12-12T22:20:01.290Z,39.37
2017-12-12T22:22:29.802Z,39.44
2017-12-12T22:24:58.417Z,39.40
2017-12-12T22:27:26.736Z,39.46
2017-12-12T22:29:55.177Z,39.38
2017-12-12T22:32:23.841Z,39.62
2017-12-12T22:34:52.484Z,39.61
2017-12-12T22:37:21.032Z,39.53
2017-12-12T22:39:50.500Z,39.48
2017-12-12T22:42:19.257Z,39.70
2017-12-12T22:44:47.701Z,39.78
2017-12-12T22:47:16.125Z,39.87
2017-12-12T22:49:45.423Z,39.89
2017-12-12T22:52:14.092Z,39.75
2017-12-12T22:54:42.504Z,39.48
2017-12-12T22:57:10.825Z,39.42
2017-12-12T22:59:39.128Z,39.46
2017-12-12T23:02:07.777Z,39.44
2017-12-12T23:04:36.253Z,39.28
2017-12-12T23:07:04.737Z,39.34
2017-12-12T23:09:33.314Z,39.30
2017-12-12T23:12:01.938Z,39.23
2017-12-12T23:14:30.214Z,39.07
2017-12-12T23:16:58.759Z,39.03
2017-12-12T23:19:27.385Z,38.93
2017-12-12T23:21:56.116Z,38.79
2017-12-12T23:24:24.492Z,38.69
2017-12-12T23:26:52.878Z,38.66
2017-12-12T23:29:21.197Z,38.87
2017-12-12T23:31:50.349Z,39.19
2017-12-12T23:34:19.786Z,39.65
2017-12-12T23:36:48.253Z,39.72
2017-12-12T23:39:16.509Z,40.01
2017-12-12T23:41:44.992Z,40.12
2017-12-12T23:44:16.404Z,40.01
2017-12-12T23:46:44.924Z,40.07
2017-12-12T23:49:13.392Z,40.01
2017-12-12T23:51:41.976Z,40.11
2017-12-12T23:54:10.432Z,39.80
2017-12-12T23:56:38.796Z,39.86
2017-12-12T23:59:07.141Z,39.60
